sensor_id;sensor_type;location;lat;lon;timestamp;pressure;altitude;pressure_sealevel;temperature;humidity
64967;BME280;51710;38.732;-121.358;2023-04-03T00:01:40;101102.50;;;17.38;49.33
64967;BME280;51710;38.732;-121.358;2023-04-03T00:04:06;101103.53;;;17.37;49.47
64967;BME280;51710;38.732;-121.358;2023-04-03T00:06:33;101098.78;;;17.39;49.55
64967;BME280;51710;38.732;-121.358;2023-04-03T00:09:00;101099.00;;;17.38;49.92
64967;BME280;51710;38.732;-121.358;2023-04-03T00:11:26;101096.09;;;17.39;50.18
64967;BME280;51710;38.732;-121.358;2023-04-03T00:13:53;101098.53;;;17.34;50.66
64967;BME280;51710;38.732;-121.358;2023-04-03T00:16:19;101083.16;;;17.28;50.79
64967;BME280;51710;38.732;-121.358;2023-04-03T00:18:45;101088.91;;;17.25;50.91
64967;BME280;51710;38.732;-121.358;2023-04-03T00:21:13;101085.97;;;17.20;50.83
64967;BME280;51710;38.732;-121.358;2023-04-03T00:23:39;101079.44;;;17.08;51.14
64967;BME280;51710;38.732;-121.358;2023-04-03T00:26:06;101082.22;;;17.00;51.39
64967;BME280;51710;38.732;-121.358;2023-04-03T00:28:32;101070.94;;;16.90;51.57
64967;BME280;51710;38.732;-121.358;2023-04-03T00:30:58;101075.66;;;16.88;51.78
64967;BME280;51710;38.732;-121.358;2023-04-03T00:33:25;101069.47;;;16.88;51.98
64967;BME280;51710;38.732;-121.358;2023-04-03T00:35:51;101073.56;;;16.83;51.80
64967;BME280;51710;38.732;-121.358;2023-04-03T00:38:18;101073.94;;;16.80;52.03
64967;BME280;51710;38.732;-121.358;2023-04-03T00:40:46;101066.41;;;16.76;51.90
64967;BME280;51710;38.732;-121.358;2023-04-03T00:43:21;101057.69;;;16.74;52.02
64967;BME280;51710;38.732;-121.358;2023-04-03T00:45:50;101065.88;;;16.66;52.18
64967;BME280;51710;38.732;-121.358;2023-04-03T00:48:20;101059.59;;;16.59;52.23
64967;BME280;51710;38.732;-121.358;2023-04-03T00:50:49;101067.38;;;16.54;52.99
64967;BME280;51710;38.732;-121.358;2023-04-03T00:53:22;101055.34;;;16.50;52.99
64967;BME280;51710;38.732;-121.358;2023-04-03T00:55:52;101051.69;;;16.43;53.30
64967;BME280;51710;38.732;-121.358;2023-04-03T00:58:25;101048.06;;;16.36;53.49
64967;BME280;51710;38.732;-121.358;2023-04-03T01:00:55;101051.88;;;16.27;53.84
64967;BME280;51710;38.732;-121.358;2023-04-03T01:03:24;101049.56;;;16.24;53.66
64967;BME280;51710;38.732;-121.358;2023-04-03T01:05:51;101046.22;;;16.22;53.62
64967;BME280;51710;38.732;-121.358;2023-04-03T01:08:17;101050.03;;;16.13;53.93
64967;BME280;51710;38.732;-121.358;2023-04-03T01:10:43;101039.00;;;16.08;53.78
64967;BME280;51710;38.732;-121.358;2023-04-03T01:13:28;101033.06;;;15.98;54.07
64967;BME280;51710;38.732;-121.358;2023-04-03T01:15:55;101032.97;;;15.91;54.16
64967;BME280;51710;38.732;-121.358;2023-04-03T01:18:23;101040.75;;;15.86;54.38
64967;BME280;51710;38.732;-121.358;2023-04-03T01:24:02;101039.91;;;15.86;54.47
64967;BME280;51710;38.732;-121.358;2023-04-03T01:26:33;101035.25;;;15.79;54.91
64967;BME280;51710;38.732;-121.358;2023-04-03T01:28:59;101032.66;;;15.71;54.78
64967;BME280;51710;38.732;-121.358;2023-04-03T01:34:10;101028.75;;;15.59;55.69
64967;BME280;51710;38.732;-121.358;2023-04-03T01:36:36;101035.69;;;15.54;55.86
64967;BME280;51710;38.732;-121.358;2023-04-03T01:39:03;101030.03;;;15.49;55.81
64967;BME280;51710;38.732;-121.358;2023-04-03T01:41:29;101034.28;;;15.43;56.17
64967;BME280;51710;38.732;-121.358;2023-04-03T01:43:56;101027.91;;;15.36;56.43
64967;BME280;51710;38.732;-121.358;2023-04-03T01:46:22;101035.69;;;15.31;56.31
64967;BME280;51710;38.732;-121.358;2023-04-03T01:48:48;101037.72;;;15.29;56.52
64967;BME280;51710;38.732;-121.358;2023-04-03T01:51:15;101032.72;;;15.26;56.72
64967;BME280;51710;38.732;-121.358;2023-04-03T01:53:41;101033.56;;;15.27;57.22
64967;BME280;51710;38.732;-121.358;2023-04-03T01:56:08;101024.00;;;15.24;57.58
64967;BME280;51710;38.732;-121.358;2023-04-03T01:58:34;101027.53;;;15.25;57.58
64967;BME280;51710;38.732;-121.358;2023-04-03T02:01:00;101025.69;;;15.25;57.39
64967;BME280;51710;38.732;-121.358;2023-04-03T02:03:29;101028.28;;;15.33;57.64
64967;BME280;51710;38.732;-121.358;2023-04-03T02:05:56;101022.94;;;15.33;57.61
64967;BME280;51710;38.732;-121.358;2023-04-03T02:08:23;101018.59;;;15.32;57.49
64967;BME280;51710;38.732;-121.358;2023-04-03T02:10:50;101020.59;;;15.30;57.69
64967;BME280;51710;38.732;-121.358;2023-04-03T02:13:17;101016.59;;;15.26;57.47
64967;BME280;51710;38.732;-121.358;2023-04-03T02:15:44;101010.75;;;15.23;57.61
64967;BME280;51710;38.732;-121.358;2023-04-03T02:18:11;101009.63;;;15.17;57.92
64967;BME280;51710;38.732;-121.358;2023-04-03T02:20:37;101002.78;;;15.15;57.83
64967;BME280;51710;38.732;-121.358;2023-04-03T02:23:04;101005.63;;;15.13;58.03
64967;BME280;51710;38.732;-121.358;2023-04-03T02:25:31;101012.38;;;15.09;58.00
64967;BME280;51710;38.732;-121.358;2023-04-03T02:27:58;101014.13;;;15.02;58.19
64967;BME280;51710;38.732;-121.358;2023-04-03T02:30:24;101008.28;;;14.99;58.46
64967;BME280;51710;38.732;-121.358;2023-04-03T02:32:50;101011.13;;;14.97;58.33
64967;BME280;51710;38.732;-121.358;2023-04-03T02:35:17;101012.13;;;14.96;58.54
64967;BME280;51710;38.732;-121.358;2023-04-03T02:37:43;101014.34;;;14.93;58.71
64967;BME280;51710;38.732;-121.358;2023-04-03T02:40:10;101013.38;;;14.86;58.21
64967;BME280;51710;38.732;-121.358;2023-04-03T02:42:37;101007.72;;;14.81;58.77
64967;BME280;51710;38.732;-121.358;2023-04-03T02:45:03;101007.06;;;14.79;58.80
64967;BME280;51710;38.732;-121.358;2023-04-03T02:47:30;101011.13;;;14.75;59.31
64967;BME280;51710;38.732;-121.358;2023-04-03T02:49:56;101006.75;;;14.74;58.84
64967;BME280;51710;38.732;-121.358;2023-04-03T02:52:22;101005.09;;;14.73;58.88
64967;BME280;51710;38.732;-121.358;2023-04-03T02:54:48;101001.56;;;14.72;58.58
64967;BME280;51710;38.732;-121.358;2023-04-03T02:57:15;101020.03;;;14.67;58.22
64967;BME280;51710;38.732;-121.358;2023-04-03T02:59:41;101009.84;;;14.62;58.29
64967;BME280;51710;38.732;-121.358;2023-04-03T03:02:08;101017.41;;;14.59;58.12
64967;BME280;51710;38.732;-121.358;2023-04-03T03:04:35;101010.72;;;14.55;58.34
64967;BME280;51710;38.732;-121.358;2023-04-03T03:07:02;101021.81;;;14.52;58.53
64967;BME280;51710;38.732;-121.358;2023-04-03T03:09:29;101038.22;;;14.49;58.31
64967;BME280;51710;38.732;-121.358;2023-04-03T03:11:56;101033.22;;;14.46;57.45
64967;BME280;51710;38.732;-121.358;2023-04-03T03:14:23;101057.16;;;14.47;57.66
64967;BME280;51710;38.732;-121.358;2023-04-03T03:16:49;101061.72;;;14.39;55.95
64967;BME280;51710;38.732;-121.358;2023-04-03T03:19:16;101054.03;;;14.20;55.78
64967;BME280;51710;38.732;-121.358;2023-04-03T03:21:42;101058.13;;;14.00;55.78
64967;BME280;51710;38.732;-121.358;2023-04-03T03:24:08;101060.50;;;13.79;56.26
64967;BME280;51710;38.732;-121.358;2023-04-03T03:26:35;101058.03;;;13.61;56.55
64967;BME280;51710;38.732;-121.358;2023-04-03T03:29:02;101050.00;;;13.45;56.03
64967;BME280;51710;38.732;-121.358;2023-04-03T03:31:28;101050.50;;;13.32;55.58
64967;BME280;51710;38.732;-121.358;2023-04-03T03:33:54;101045.13;;;13.16;55.23
64967;BME280;51710;38.732;-121.358;2023-04-03T03:36:21;101052.66;;;13.05;55.47
64967;BME280;51710;38.732;-121.358;2023-04-03T03:38:47;101055.44;;;12.95;55.91
64967;BME280;51710;38.732;-121.358;2023-04-03T03:41:13;101073.16;;;12.88;55.93
64967;BME280;51710;38.732;-121.358;2023-04-03T03:43:39;101075.09;;;12.78;56.83
64967;BME280;51710;38.732;-121.358;2023-04-03T03:46:06;101082.09;;;12.71;56.76
64967;BME280;51710;38.732;-121.358;2023-04-03T03:48:32;101089.94;;;12.65;56.89
64967;BME280;51710;38.732;-121.358;2023-04-03T03:50:58;101097.06;;;12.56;56.74
64967;BME280;51710;38.732;-121.358;2023-04-03T03:53:24;101092.34;;;12.50;57.42
64967;BME280;51710;38.732;-121.358;2023-04-03T03:55:51;101094.00;;;12.43;57.12
64967;BME280;51710;38.732;-121.358;2023-04-03T03:58:17;101092.31;;;12.34;57.62
64967;BME280;51710;38.732;-121.358;2023-04-03T04:00:43;101085.94;;;12.27;57.38
64967;BME280;51710;38.732;-121.358;2023-04-03T04:03:10;101088.38;;;12.20;56.93
64967;BME280;51710;38.732;-121.358;2023-04-03T04:05:36;101088.88;;;12.16;56.89
64967;BME280;51710;38.732;-121.358;2023-04-03T04:08:02;101105.38;;;12.11;57.28
64967;BME280;51710;38.732;-121.358;2023-04-03T04:10:28;101109.50;;;12.06;57.16
64967;BME280;51710;38.732;-121.358;2023-04-03T04:12:55;101112.94;;;11.98;57.67
64967;BME280;51710;38.732;-121.358;2023-04-03T04:15:21;101117.75;;;11.95;57.53
64967;BME280;51710;38.732;-121.358;2023-04-03T04:17:47;101121.72;;;11.91;58.08
64967;BME280;51710;38.732;-121.358;2023-04-03T04:20:14;101134.41;;;11.89;58.29
64967;BME280;51710;38.732;-121.358;2023-04-03T04:22:40;101135.69;;;11.85;58.90
64967;BME280;51710;38.732;-121.358;2023-04-03T04:25:07;101128.16;;;11.80;59.11
64967;BME280;51710;38.732;-121.358;2023-04-03T04:27:33;101128.63;;;11.76;59.15
64967;BME280;51710;38.732;-121.358;2023-04-03T04:30:00;101131.59;;;11.73;59.82
64967;BME280;51710;38.732;-121.358;2023-04-03T04:32:26;101132.06;;;11.68;59.25
64967;BME280;51710;38.732;-121.358;2023-04-03T04:34:52;101144.41;;;11.69;59.82
64967;BME280;51710;38.732;-121.358;2023-04-03T04:37:19;101133.50;;;11.63;58.56
64967;BME280;51710;38.732;-121.358;2023-04-03T04:39:45;101142.31;;;11.63;58.49
64967;BME280;51710;38.732;-121.358;2023-04-03T04:42:11;101142.47;;;11.62;58.28
64967;BME280;51710;38.732;-121.358;2023-04-03T04:44:39;101140.28;;;11.57;58.15
64967;BME280;51710;38.732;-121.358;2023-04-03T04:47:05;101143.53;;;11.51;56.34
64967;BME280;51710;38.732;-121.358;2023-04-03T04:49:31;101144.31;;;11.44;56.31
64967;BME280;51710;38.732;-121.358;2023-04-03T04:51:58;101144.22;;;11.35;55.42
64967;BME280;51710;38.732;-121.358;2023-04-03T04:54:24;101141.03;;;11.32;54.83
64967;BME280;51710;38.732;-121.358;2023-04-03T04:56:50;101150.31;;;11.28;54.56
64967;BME280;51710;38.732;-121.358;2023-04-03T04:59:16;101153.28;;;11.25;54.08
64967;BME280;51710;38.732;-121.358;2023-04-03T05:01:43;101162.44;;;11.22;54.34
64967;BME280;51710;38.732;-121.358;2023-04-03T05:04:09;101161.91;;;11.19;54.01
64967;BME280;51710;38.732;-121.358;2023-04-03T05:06:38;101160.81;;;11.12;54.07
64967;BME280;51710;38.732;-121.358;2023-04-03T05:09:04;101165.88;;;11.05;54.11
64967;BME280;51710;38.732;-121.358;2023-04-03T05:11:31;101164.00;;;10.98;55.05
64967;BME280;51710;38.732;-121.358;2023-04-03T05:13:57;101160.94;;;10.93;54.79
64967;BME280;51710;38.732;-121.358;2023-04-03T05:16:23;101144.69;;;10.86;55.14
64967;BME280;51710;38.732;-121.358;2023-04-03T05:18:49;101155.81;;;10.82;54.79
64967;BME280;51710;38.732;-121.358;2023-04-03T05:21:16;101155.56;;;10.75;54.89
64967;BME280;51710;38.732;-121.358;2023-04-03T05:23:44;101166.63;;;10.71;55.15
64967;BME280;51710;38.732;-121.358;2023-04-03T05:26:10;101161.91;;;10.65;55.52
64967;BME280;51710;38.732;-121.358;2023-04-03T05:28:36;101169.50;;;10.60;55.53
64967;BME280;51710;38.732;-121.358;2023-04-03T05:31:03;101167.41;;;10.54;55.65
64967;BME280;51710;38.732;-121.358;2023-04-03T05:33:29;101166.72;;;10.52;55.63
64967;BME280;51710;38.732;-121.358;2023-04-03T05:35:55;101177.53;;;10.50;55.92
64967;BME280;51710;38.732;-121.358;2023-04-03T05:38:21;101170.13;;;10.44;55.52
64967;BME280;51710;38.732;-121.358;2023-04-03T05:40:48;101167.88;;;10.40;56.61
64967;BME280;51710;38.732;-121.358;2023-04-03T05:43:14;101175.03;;;10.39;56.50
64967;BME280;51710;38.732;-121.358;2023-04-03T05:45:40;101163.72;;;10.37;56.44
64967;BME280;51710;38.732;-121.358;2023-04-03T05:48:06;101167.34;;;10.36;56.55
64967;BME280;51710;38.732;-121.358;2023-04-03T05:50:33;101162.31;;;10.33;56.73
64967;BME280;51710;38.732;-121.358;2023-04-03T05:53:00;101168.50;;;10.24;56.76
64967;BME280;51710;38.732;-121.358;2023-04-03T05:55:28;101161.22;;;10.16;56.69
64967;BME280;51710;38.732;-121.358;2023-04-03T05:57:54;101156.63;;;10.09;56.69
64967;BME280;51710;38.732;-121.358;2023-04-03T06:00:20;101163.47;;;10.02;57.31
64967;BME280;51710;38.732;-121.358;2023-04-03T06:02:46;101165.72;;;9.97;56.94
64967;BME280;51710;38.732;-121.358;2023-04-03T06:05:13;101168.53;;;9.95;57.38
64967;BME280;51710;38.732;-121.358;2023-04-03T06:07:40;101163.47;;;9.92;57.02
64967;BME280;51710;38.732;-121.358;2023-04-03T06:10:07;101161.25;;;9.88;57.68
64967;BME280;51710;38.732;-121.358;2023-04-03T06:12:34;101152.16;;;9.81;57.37
64967;BME280;51710;38.732;-121.358;2023-04-03T06:15:00;101150.06;;;9.75;57.33
64967;BME280;51710;38.732;-121.358;2023-04-03T06:17:27;101146.03;;;9.71;57.61
64967;BME280;51710;38.732;-121.358;2023-04-03T06:19:55;101145.63;;;9.66;57.81
64967;BME280;51710;38.732;-121.358;2023-04-03T06:22:23;101156.50;;;9.63;57.65
64967;BME280;51710;38.732;-121.358;2023-04-03T06:24:51;101160.16;;;9.62;58.30
64967;BME280;51710;38.732;-121.358;2023-04-03T06:27:17;101156.78;;;9.60;58.06
64967;BME280;51710;38.732;-121.358;2023-04-03T06:29:43;101164.06;;;9.58;57.88
64967;BME280;51710;38.732;-121.358;2023-04-03T06:32:11;101157.34;;;9.54;58.06
64967;BME280;51710;38.732;-121.358;2023-04-03T06:34:37;101169.09;;;9.51;58.02
64967;BME280;51710;38.732;-121.358;2023-04-03T06:37:03;101167.56;;;9.49;58.16
64967;BME280;51710;38.732;-121.358;2023-04-03T06:39:30;101168.00;;;9.44;58.28
64967;BME280;51710;38.732;-121.358;2023-04-03T06:41:56;101156.78;;;9.41;58.74
64967;BME280;51710;38.732;-121.358;2023-04-03T06:44:22;101157.06;;;9.38;58.51
64967;BME280;51710;38.732;-121.358;2023-04-03T06:46:48;101163.50;;;9.35;58.86
64967;BME280;51710;38.732;-121.358;2023-04-03T06:49:15;101167.28;;;9.33;58.41
64967;BME280;51710;38.732;-121.358;2023-04-03T06:51:41;101161.53;;;9.28;58.87
64967;BME280;51710;38.732;-121.358;2023-04-03T06:54:08;101165.44;;;9.24;58.94
64967;BME280;51710;38.732;-121.358;2023-04-03T06:56:34;101169.06;;;9.23;59.12
64967;BME280;51710;38.732;-121.358;2023-04-03T06:59:01;101162.38;;;9.19;59.16
64967;BME280;51710;38.732;-121.358;2023-04-03T07:01:28;101177.47;;;9.18;59.39
64967;BME280;51710;38.732;-121.358;2023-04-03T07:03:56;101180.97;;;9.19;59.50
64967;BME280;51710;38.732;-121.358;2023-04-03T07:06:22;101186.53;;;9.16;59.29
64967;BME280;51710;38.732;-121.358;2023-04-03T07:08:48;101181.94;;;9.18;59.36
64967;BME280;51710;38.732;-121.358;2023-04-03T07:11:15;101178.56;;;9.16;59.60
64967;BME280;51710;38.732;-121.358;2023-04-03T07:13:42;101191.84;;;9.16;59.49
64967;BME280;51710;38.732;-121.358;2023-04-03T07:16:08;101181.94;;;9.18;59.68
64967;BME280;51710;38.732;-121.358;2023-04-03T07:18:35;101179.84;;;9.21;59.71
64967;BME280;51710;38.732;-121.358;2023-04-03T07:21:02;101187.53;;;9.24;60.12
64967;BME280;51710;38.732;-121.358;2023-04-03T07:23:28;101193.41;;;9.28;59.95
64967;BME280;51710;38.732;-121.358;2023-04-03T07:25:55;101198.47;;;9.31;60.04
64967;BME280;51710;38.732;-121.358;2023-04-03T07:28:22;101191.19;;;9.33;60.10
64967;BME280;51710;38.732;-121.358;2023-04-03T07:31:03;101189.22;;;9.35;60.09
64967;BME280;51710;38.732;-121.358;2023-04-03T07:33:31;101193.56;;;9.36;59.54
64967;BME280;51710;38.732;-121.358;2023-04-03T07:35:57;101190.91;;;9.36;60.29
64967;BME280;51710;38.732;-121.358;2023-04-03T07:38:24;101190.78;;;9.37;60.10
64967;BME280;51710;38.732;-121.358;2023-04-03T07:40:51;101194.00;;;9.41;59.71
64967;BME280;51710;38.732;-121.358;2023-04-03T07:43:19;101187.00;;;9.40;59.87
64967;BME280;51710;38.732;-121.358;2023-04-03T07:45:47;101193.84;;;9.42;59.64
64967;BME280;51710;38.732;-121.358;2023-04-03T07:48:19;101202.69;;;9.43;59.75
64967;BME280;51710;38.732;-121.358;2023-04-03T07:50:46;101190.09;;;9.45;59.65
64967;BME280;51710;38.732;-121.358;2023-04-03T07:53:12;101199.59;;;9.47;59.30
64967;BME280;51710;38.732;-121.358;2023-04-03T07:55:39;101197.09;;;9.46;59.34
64967;BME280;51710;38.732;-121.358;2023-04-03T07:58:11;101198.06;;;9.45;59.30
64967;BME280;51710;38.732;-121.358;2023-04-03T08:00:38;101198.75;;;9.47;59.26
64967;BME280;51710;38.732;-121.358;2023-04-03T08:03:05;101199.03;;;9.44;59.55
64967;BME280;51710;38.732;-121.358;2023-04-03T08:05:39;101197.63;;;9.40;59.91
64967;BME280;51710;38.732;-121.358;2023-04-03T08:08:06;101194.53;;;9.35;59.69
64967;BME280;51710;38.732;-121.358;2023-04-03T08:10:32;101203.50;;;9.34;60.23
64967;BME280;51710;38.732;-121.358;2023-04-03T08:13:00;101204.03;;;9.28;60.90
64967;BME280;51710;38.732;-121.358;2023-04-03T08:15:27;101207.97;;;9.24;61.09
64967;BME280;51710;38.732;-121.358;2023-04-03T08:17:54;101213.53;;;9.21;60.93
64967;BME280;51710;38.732;-121.358;2023-04-03T08:20:20;101205.84;;;9.18;61.53
64967;BME280;51710;38.732;-121.358;2023-04-03T08:22:46;101210.59;;;9.14;61.87
64967;BME280;51710;38.732;-121.358;2023-04-03T08:25:13;101209.06;;;9.12;62.54
64967;BME280;51710;38.732;-121.358;2023-04-03T08:27:40;101196.72;;;9.10;62.80
64967;BME280;51710;38.732;-121.358;2023-04-03T08:30:07;101202.59;;;9.04;62.85
64967;BME280;51710;38.732;-121.358;2023-04-03T08:32:34;101210.97;;;9.00;63.34
64967;BME280;51710;38.732;-121.358;2023-04-03T08:35:02;101210.97;;;9.00;63.26
64967;BME280;51710;38.732;-121.358;2023-04-03T08:37:29;101208.16;;;9.01;63.52
64967;BME280;51710;38.732;-121.358;2023-04-03T08:39:55;101216.03;;;9.03;63.36
64967;BME280;51710;38.732;-121.358;2023-04-03T08:45:16;101217.97;;;9.01;63.58
64967;BME280;51710;38.732;-121.358;2023-04-03T08:47:56;101214.19;;;9.03;62.99
64967;BME280;51710;38.732;-121.358;2023-04-03T08:50:30;101215.88;;;9.04;63.14
64967;BME280;51710;38.732;-121.358;2023-04-03T08:52:59;101222.72;;;9.07;62.74
64967;BME280;51710;38.732;-121.358;2023-04-03T08:55:46;101212.38;;;9.04;62.94
64967;BME280;51710;38.732;-121.358;2023-04-03T08:58:19;101219.66;;;9.02;63.45
64967;BME280;51710;38.732;-121.358;2023-04-03T09:00:50;101220.50;;;9.02;63.35
64967;BME280;51710;38.732;-121.358;2023-04-03T09:03:19;101215.19;;;9.02;63.79
64967;BME280;51710;38.732;-121.358;2023-04-03T09:13:47;101225.63;;;8.94;64.58
64967;BME280;51710;38.732;-121.358;2023-04-03T09:19:33;101227.47;;;8.94;64.64
64967;BME280;51710;38.732;-121.358;2023-04-03T09:22:18;101238.66;;;8.97;64.97
64967;BME280;51710;38.732;-121.358;2023-04-03T09:24:52;101235.16;;;8.97;65.60
64967;BME280;51710;38.732;-121.358;2023-04-03T09:27:22;101240.88;;;8.92;65.28
64967;BME280;51710;38.732;-121.358;2023-04-03T09:29:49;101245.84;;;8.86;64.50
64967;BME280;51710;38.732;-121.358;2023-04-03T09:32:30;101242.47;;;8.84;63.92
64967;BME280;51710;38.732;-121.358;2023-04-03T09:35:02;101244.47;;;8.82;64.18
64967;BME280;51710;38.732;-121.358;2023-04-03T09:40:05;101228.38;;;8.83;63.36
64967;BME280;51710;38.732;-121.358;2023-04-03T09:42:32;101229.34;;;8.82;63.17
64967;BME280;51710;38.732;-121.358;2023-04-03T09:45:04;101232.00;;;8.82;63.59
64967;BME280;51710;38.732;-121.358;2023-04-03T09:47:32;101234.53;;;8.84;63.16
64967;BME280;51710;38.732;-121.358;2023-04-03T09:52:45;101243.06;;;8.87;62.76
64967;BME280;51710;38.732;-121.358;2023-04-03T09:57:44;101243.38;;;8.94;62.65
64967;BME280;51710;38.732;-121.358;2023-04-03T10:00:27;101253.88;;;8.95;62.65
64967;BME280;51710;38.732;-121.358;2023-04-03T10:02:55;101248.44;;;8.97;62.67
64967;BME280;51710;38.732;-121.358;2023-04-03T10:08:10;101253.47;;;9.00;62.79
64967;BME280;51710;38.732;-121.358;2023-04-03T10:10:38;101243.97;;;8.97;63.07
64967;BME280;51710;38.732;-121.358;2023-04-03T10:13:14;101249.66;;;8.93;63.10
64967;BME280;51710;38.732;-121.358;2023-04-03T10:16:03;101251.88;;;8.88;63.51
64967;BME280;51710;38.732;-121.358;2023-04-03T10:26:45;101252.44;;;8.61;64.65
64967;BME280;51710;38.732;-121.358;2023-04-03T10:29:34;101256.34;;;8.57;64.79
64967;BME280;51710;38.732;-121.358;2023-04-03T10:32:06;101255.19;;;8.50;65.16
64967;BME280;51710;38.732;-121.358;2023-04-03T10:34:44;101248.72;;;8.43;65.50
64967;BME280;51710;38.732;-121.358;2023-04-03T10:37:16;101244.91;;;8.36;65.74
64967;BME280;51710;38.732;-121.358;2023-04-03T10:40:02;101250.00;;;8.28;65.89
64967;BME280;51710;38.732;-121.358;2023-04-03T10:54:08;101244.66;;;7.87;66.94
64967;BME280;51710;38.732;-121.358;2023-04-03T10:56:40;101252.00;;;7.83;66.90
64967;BME280;51710;38.732;-121.358;2023-04-03T11:01:53;101239.91;;;7.70;66.78
64967;BME280;51710;38.732;-121.358;2023-04-03T11:04:23;101238.59;;;7.64;66.93
64967;BME280;51710;38.732;-121.358;2023-04-03T11:07:03;101240.19;;;7.56;67.15
64967;BME280;51710;38.732;-121.358;2023-04-03T11:09:35;101225.88;;;7.47;66.82
64967;BME280;51710;38.732;-121.358;2023-04-03T11:12:26;101239.75;;;7.40;67.81
64967;BME280;51710;38.732;-121.358;2023-04-03T11:14:55;101246.25;;;7.36;67.95
64967;BME280;51710;38.732;-121.358;2023-04-03T11:17:35;101246.38;;;7.34;68.02
64967;BME280;51710;38.732;-121.358;2023-04-03T11:20:14;101248.44;;;7.31;68.01
64967;BME280;51710;38.732;-121.358;2023-04-03T11:22:47;101243.50;;;7.26;67.85
64967;BME280;51710;38.732;-121.358;2023-04-03T11:25:20;101251.00;;;7.21;68.65
64967;BME280;51710;38.732;-121.358;2023-04-03T11:28:05;101249.91;;;7.13;68.55
64967;BME280;51710;38.732;-121.358;2023-04-03T11:36:13;101257.38;;;6.97;68.69
64967;BME280;51710;38.732;-121.358;2023-04-03T11:38:46;101265.22;;;6.98;69.04
64967;BME280;51710;38.732;-121.358;2023-04-03T11:41:14;101266.31;;;6.96;68.87
64967;BME280;51710;38.732;-121.358;2023-04-03T11:43:59;101261.47;;;6.90;69.65
64967;BME280;51710;38.732;-121.358;2023-04-03T11:46:51;101272.44;;;6.85;69.86
64967;BME280;51710;38.732;-121.358;2023-04-03T11:49:56;101276.41;;;6.79;69.17
64967;BME280;51710;38.732;-121.358;2023-04-03T11:55:41;101277.34;;;6.67;70.11
64967;BME280;51710;38.732;-121.358;2023-04-03T11:58:21;101284.56;;;6.65;69.46
64967;BME280;51710;38.732;-121.358;2023-04-03T12:00:50;101279.53;;;6.62;69.76
64967;BME280;51710;38.732;-121.358;2023-04-03T12:16:32;101286.22;;;6.10;70.59
64967;BME280;51710;38.732;-121.358;2023-04-03T12:19:01;101282.00;;;6.07;70.49
64967;BME280;51710;38.732;-121.358;2023-04-03T12:29:33;101295.97;;;6.09;70.96
64967;BME280;51710;38.732;-121.358;2023-04-03T12:34:52;101295.91;;;5.98;71.18
64967;BME280;51710;38.732;-121.358;2023-04-03T12:51:26;101319.84;;;5.84;72.04
64967;BME280;51710;38.732;-121.358;2023-04-03T12:54:00;101320.84;;;5.83;71.90
64967;BME280;51710;38.732;-121.358;2023-04-03T12:56:30;101318.50;;;5.79;72.30
64967;BME280;51710;38.732;-121.358;2023-04-03T12:59:15;101315.91;;;5.66;72.30
64967;BME280;51710;38.732;-121.358;2023-04-03T13:01:43;101329.88;;;5.55;72.41
64967;BME280;51710;38.732;-121.358;2023-04-03T13:04:13;101325.59;;;5.42;72.79
64967;BME280;51710;38.732;-121.358;2023-04-03T13:06:43;101328.16;;;5.31;73.01
64967;BME280;51710;38.732;-121.358;2023-04-03T13:12:13;101319.09;;;5.22;73.23
64967;BME280;51710;38.732;-121.358;2023-04-03T13:14:54;101324.38;;;5.22;73.49
64967;BME280;51710;38.732;-121.358;2023-04-03T13:17:21;101337.47;;;5.24;73.49
64967;BME280;51710;38.732;-121.358;2023-04-03T13:19:48;101333.34;;;5.20;73.27
64967;BME280;51710;38.732;-121.358;2023-04-03T13:25:07;101329.25;;;5.16;73.69
64967;BME280;51710;38.732;-121.358;2023-04-03T13:27:34;101331.16;;;5.14;73.66
64967;BME280;51710;38.732;-121.358;2023-04-03T13:30:02;101333.03;;;5.12;73.72
64967;BME280;51710;38.732;-121.358;2023-04-03T13:32:31;101337.28;;;5.14;73.77
64967;BME280;51710;38.732;-121.358;2023-04-03T13:34:58;101339.91;;;5.14;73.87
64967;BME280;51710;38.732;-121.358;2023-04-03T13:37:31;101339.28;;;5.11;73.81
64967;BME280;51710;38.732;-121.358;2023-04-03T13:40:11;101339.59;;;5.06;74.07
64967;BME280;51710;38.732;-121.358;2023-04-03T13:42:39;101345.09;;;5.03;74.08
64967;BME280;51710;38.732;-121.358;2023-04-03T13:45:21;101352.16;;;5.03;74.42
64967;BME280;51710;38.732;-121.358;2023-04-03T13:47:51;101355.75;;;5.02;74.39
64967;BME280;51710;38.732;-121.358;2023-04-03T13:50:21;101358.38;;;5.02;74.35
64967;BME280;51710;38.732;-121.358;2023-04-03T13:52:49;101360.69;;;5.06;73.94
64967;BME280;51710;38.732;-121.358;2023-04-03T13:55:26;101366.09;;;5.05;74.32
64967;BME280;51710;38.732;-121.358;2023-04-03T13:58:01;101370.63;;;5.03;74.36
64967;BME280;51710;38.732;-121.358;2023-04-03T14:00:32;101368.09;;;5.01;74.39
64967;BME280;51710;38.732;-121.358;2023-04-03T14:03:00;101374.22;;;5.02;73.80
64967;BME280;51710;38.732;-121.358;2023-04-03T14:05:26;101374.44;;;4.86;73.65
64967;BME280;51710;38.732;-121.358;2023-04-03T14:07:54;101369.88;;;4.76;73.65
64967;BME280;51710;38.732;-121.358;2023-04-03T14:10:21;101378.00;;;4.73;74.22
64967;BME280;51710;38.732;-121.358;2023-04-03T14:12:48;101374.31;;;4.75;74.37
64967;BME280;51710;38.732;-121.358;2023-04-03T14:15:24;101383.81;;;4.78;74.66
64967;BME280;51710;38.732;-121.358;2023-04-03T14:17:53;101389.81;;;4.80;74.39
64967;BME280;51710;38.732;-121.358;2023-04-03T14:20:24;101387.91;;;4.82;74.29